sensor_id;sensor_type;location;lat;lon;timestamp;temperature;humidity
48734;DHT22;34530;52.084;5.146;2022-08-19T00:01:46;26.40;58.50
48734;DHT22;34530;52.084;5.146;2022-08-19T00:04:14;26.40;58.60
48734;DHT22;34530;52.084;5.146;2022-08-19T00:06:41;26.40;58.70
48734;DHT22;34530;52.084;5.146;2022-08-19T00:09:10;26.30;58.70
48734;DHT22;34530;52.084;5.146;2022-08-19T00:11:36;26.30;58.90
48734;DHT22;34530;52.084;5.146;2022-08-19T00:14:04;26.30;58.80
48734;DHT22;34530;52.084;5.146;2022-08-19T00:16:30;26.40;58.70
48734;DHT22;34530;52.084;5.146;2022-08-19T00:18:56;26.40;58.70
48734;DHT22;34530;52.084;5.146;2022-08-19T00:21:22;26.40;58.70
48734;DHT22;34530;52.084;5.146;2022-08-19T00:23:48;26.30;58.60
48734;DHT22;34530;52.084;5.146;2022-08-19T00:26:14;26.40;58.70
48734;DHT22;34530;52.084;5.146;2022-08-19T00:28:41;26.40;58.80
48734;DHT22;34530;52.084;5.146;2022-08-19T00:31:08;26.40;58.70
48734;DHT22;34530;52.084;5.146;2022-08-19T00:33:34;26.40;58.50
48734;DHT22;34530;52.084;5.146;2022-08-19T00:36:06;26.40;58.50
48734;DHT22;34530;52.084;5.146;2022-08-19T00:38:33;26.40;58.40
48734;DHT22;34530;52.084;5.146;2022-08-19T00:40:59;26.40;58.40
48734;DHT22;34530;52.084;5.146;2022-08-19T00:43:26;26.30;58.30
48734;DHT22;34530;52.084;5.146;2022-08-19T00:45:53;26.30;58.40
48734;DHT22;34530;52.084;5.146;2022-08-19T00:48:19;26.30;58.60
48734;DHT22;34530;52.084;5.146;2022-08-19T00:50:48;26.20;58.60
48734;DHT22;34530;52.084;5.146;2022-08-19T00:53:16;26.20;58.60
48734;DHT22;34530;52.084;5.146;2022-08-19T00:55:49;26.20;58.60
48734;DHT22;34530;52.084;5.146;2022-08-19T00:58:19;26.20;58.60
48734;DHT22;34530;52.084;5.146;2022-08-19T01:00:46;26.20;58.60
48734;DHT22;34530;52.084;5.146;2022-08-19T01:03:17;26.20;58.70
48734;DHT22;34530;52.084;5.146;2022-08-19T01:05:44;26.20;58.80
48734;DHT22;34530;52.084;5.146;2022-08-19T01:08:11;26.20;58.80
48734;DHT22;34530;52.084;5.146;2022-08-19T01:10:40;26.10;58.80
48734;DHT22;34530;52.084;5.146;2022-08-19T01:13:06;26.10;58.90
48734;DHT22;34530;52.084;5.146;2022-08-19T01:15:47;26.10;58.80
48734;DHT22;34530;52.084;5.146;2022-08-19T01:18:16;26.10;58.70
48734;DHT22;34530;52.084;5.146;2022-08-19T01:20:42;26.10;58.80
48734;DHT22;34530;52.084;5.146;2022-08-19T01:23:08;26.10;58.80
48734;DHT22;34530;52.084;5.146;2022-08-19T01:28:19;26.10;58.80
48734;DHT22;34530;52.084;5.146;2022-08-19T01:30:45;26.10;59.00
48734;DHT22;34530;52.084;5.146;2022-08-19T01:33:12;26.10;59.70
48734;DHT22;34530;52.084;5.146;2022-08-19T01:35:38;26.10;58.90
48734;DHT22;34530;52.084;5.146;2022-08-19T01:38:07;26.10;58.80
48734;DHT22;34530;52.084;5.146;2022-08-19T01:40:35;26.10;58.70
48734;DHT22;34530;52.084;5.146;2022-08-19T01:43:02;26.10;58.70
48734;DHT22;34530;52.084;5.146;2022-08-19T01:45:30;26.10;58.70
48734;DHT22;34530;52.084;5.146;2022-08-19T01:47:57;26.00;58.80
48734;DHT22;34530;52.084;5.146;2022-08-19T01:50:24;26.10;58.90
48734;DHT22;34530;52.084;5.146;2022-08-19T01:52:50;26.00;58.90
48734;DHT22;34530;52.084;5.146;2022-08-19T01:55:20;26.00;58.90
48734;DHT22;34530;52.084;5.146;2022-08-19T01:57:59;26.10;58.90
48734;DHT22;34530;52.084;5.146;2022-08-19T02:00:27;26.10;58.90
48734;DHT22;34530;52.084;5.146;2022-08-19T02:02:53;26.10;58.90
48734;DHT22;34530;52.084;5.146;2022-08-19T02:05:19;26.10;58.80
48734;DHT22;34530;52.084;5.146;2022-08-19T02:07:47;26.10;58.80
48734;DHT22;34530;52.084;5.146;2022-08-19T02:10:18;26.10;58.70
48734;DHT22;34530;52.084;5.146;2022-08-19T02:12:45;26.10;58.60
48734;DHT22;34530;52.084;5.146;2022-08-19T02:15:11;26.10;58.60
48734;DHT22;34530;52.084;5.146;2022-08-19T02:17:37;26.10;58.60
48734;DHT22;34530;52.084;5.146;2022-08-19T02:20:03;26.00;58.60
48734;DHT22;34530;52.084;5.146;2022-08-19T02:22:29;26.10;58.70
48734;DHT22;34530;52.084;5.146;2022-08-19T02:24:55;26.10;58.60
48734;DHT22;34530;52.084;5.146;2022-08-19T02:27:22;26.10;58.50
48734;DHT22;34530;52.084;5.146;2022-08-19T02:29:49;26.00;58.60
48734;DHT22;34530;52.084;5.146;2022-08-19T02:32:15;26.00;58.80
48734;DHT22;34530;52.084;5.146;2022-08-19T02:34:41;26.00;58.90
48734;DHT22;34530;52.084;5.146;2022-08-19T02:37:07;26.00;58.90
48734;DHT22;34530;52.084;5.146;2022-08-19T02:39:52;26.00;58.90
48734;DHT22;34530;52.084;5.146;2022-08-19T02:42:18;26.00;58.70
48734;DHT22;34530;52.084;5.146;2022-08-19T02:44:44;26.00;58.60
48734;DHT22;34530;52.084;5.146;2022-08-19T02:47:10;26.00;58.50
48734;DHT22;34530;52.084;5.146;2022-08-19T02:49:36;26.00;58.40
48734;DHT22;34530;52.084;5.146;2022-08-19T02:52:03;25.90;58.40
48734;DHT22;34530;52.084;5.146;2022-08-19T02:54:28;25.80;58.50
48734;DHT22;34530;52.084;5.146;2022-08-19T02:56:54;25.80;58.60
48734;DHT22;34530;52.084;5.146;2022-08-19T02:59:19;25.70;58.80
48734;DHT22;34530;52.084;5.146;2022-08-19T03:01:45;25.60;58.90
48734;DHT22;34530;52.084;5.146;2022-08-19T03:04:13;25.60;58.90
48734;DHT22;34530;52.084;5.146;2022-08-19T03:06:42;25.60;58.90
48734;DHT22;34530;52.084;5.146;2022-08-19T03:09:09;25.60;58.90
48734;DHT22;34530;52.084;5.146;2022-08-19T03:11:36;25.60;59.00
48734;DHT22;34530;52.084;5.146;2022-08-19T03:14:03;25.50;59.10
48734;DHT22;34530;52.084;5.146;2022-08-19T03:16:31;25.50;59.00
48734;DHT22;34530;52.084;5.146;2022-08-19T03:18:58;25.50;59.10
48734;DHT22;34530;52.084;5.146;2022-08-19T03:21:28;25.40;59.20
48734;DHT22;34530;52.084;5.146;2022-08-19T03:23:56;25.40;59.40
48734;DHT22;34530;52.084;5.146;2022-08-19T03:26:23;25.40;59.30
48734;DHT22;34530;52.084;5.146;2022-08-19T03:28:48;25.40;59.20
48734;DHT22;34530;52.084;5.146;2022-08-19T03:31:18;25.40;59.20
48734;DHT22;34530;52.084;5.146;2022-08-19T03:33:45;25.40;59.20
48734;DHT22;34530;52.084;5.146;2022-08-19T03:36:12;25.50;59.20
48734;DHT22;34530;52.084;5.146;2022-08-19T03:38:45;25.40;59.10
48734;DHT22;34530;52.084;5.146;2022-08-19T03:41:14;25.40;59.20
48734;DHT22;34530;52.084;5.146;2022-08-19T03:43:42;25.40;59.20
48734;DHT22;34530;52.084;5.146;2022-08-19T03:46:11;25.40;59.20
48734;DHT22;34530;52.084;5.146;2022-08-19T03:48:38;25.30;59.20
48734;DHT22;34530;52.084;5.146;2022-08-19T03:51:05;25.30;59.20
48734;DHT22;34530;52.084;5.146;2022-08-19T03:53:32;25.30;59.40
48734;DHT22;34530;52.084;5.146;2022-08-19T03:55:58;25.30;59.40
48734;DHT22;34530;52.084;5.146;2022-08-19T03:58:26;25.30;59.40
48734;DHT22;34530;52.084;5.146;2022-08-19T04:00:55;25.20;59.50
48734;DHT22;34530;52.084;5.146;2022-08-19T04:03:21;25.20;59.70
48734;DHT22;34530;52.084;5.146;2022-08-19T04:05:47;25.20;59.80
48734;DHT22;34530;52.084;5.146;2022-08-19T04:08:13;25.20;59.80
48734;DHT22;34530;52.084;5.146;2022-08-19T04:10:44;25.20;59.60
48734;DHT22;34530;52.084;5.146;2022-08-19T04:13:09;25.30;59.60
48734;DHT22;34530;52.084;5.146;2022-08-19T04:15:40;25.30;60.10
48734;DHT22;34530;52.084;5.146;2022-08-19T04:18:10;25.30;59.40
48734;DHT22;34530;52.084;5.146;2022-08-19T04:20:46;25.30;59.30
48734;DHT22;34530;52.084;5.146;2022-08-19T04:23:14;25.30;59.40
48734;DHT22;34530;52.084;5.146;2022-08-19T04:25:42;25.30;59.40
48734;DHT22;34530;52.084;5.146;2022-08-19T04:28:10;25.20;59.40
48734;DHT22;34530;52.084;5.146;2022-08-19T04:30:47;25.20;59.40
48734;DHT22;34530;52.084;5.146;2022-08-19T04:33:14;25.20;59.60
48734;DHT22;34530;52.084;5.146;2022-08-19T04:35:43;25.10;59.60
48734;DHT22;34530;52.084;5.146;2022-08-19T04:38:10;25.10;59.70
48734;DHT22;34530;52.084;5.146;2022-08-19T04:40:47;25.10;59.70
48734;DHT22;34530;52.084;5.146;2022-08-19T04:43:32;25.20;59.60
48734;DHT22;34530;52.084;5.146;2022-08-19T04:45:58;25.20;59.70
48734;DHT22;34530;52.084;5.146;2022-08-19T04:48:24;25.20;59.60
48734;DHT22;34530;52.084;5.146;2022-08-19T04:50:56;25.30;59.50
48734;DHT22;34530;52.084;5.146;2022-08-19T04:53:31;25.30;59.40
48734;DHT22;34530;52.084;5.146;2022-08-19T04:55:58;25.30;59.30
48734;DHT22;34530;52.084;5.146;2022-08-19T04:58:26;25.40;59.20
48734;DHT22;34530;52.084;5.146;2022-08-19T05:00:52;25.40;59.10
48734;DHT22;34530;52.084;5.146;2022-08-19T05:03:18;25.40;59.00
48734;DHT22;34530;52.084;5.146;2022-08-19T05:05:45;25.40;58.90
48734;DHT22;34530;52.084;5.146;2022-08-19T05:08:15;25.50;58.90
48734;DHT22;34530;52.084;5.146;2022-08-19T05:10:48;25.50;58.80
48734;DHT22;34530;52.084;5.146;2022-08-19T05:13:16;25.50;58.80
48734;DHT22;34530;52.084;5.146;2022-08-19T05:15:42;25.50;58.80
48734;DHT22;34530;52.084;5.146;2022-08-19T05:18:08;25.50;58.70
48734;DHT22;34530;52.084;5.146;2022-08-19T05:20:53;25.60;58.70
48734;DHT22;34530;52.084;5.146;2022-08-19T05:23:37;25.60;58.70
48734;DHT22;34530;52.084;5.146;2022-08-19T05:26:03;25.60;58.60
48734;DHT22;34530;52.084;5.146;2022-08-19T05:28:30;25.60;58.70
48734;DHT22;34530;52.084;5.146;2022-08-19T05:30:56;25.60;58.70
48734;DHT22;34530;52.084;5.146;2022-08-19T05:33:22;25.60;58.60
48734;DHT22;34530;52.084;5.146;2022-08-19T05:35:50;25.60;58.60
48734;DHT22;34530;52.084;5.146;2022-08-19T05:38:18;25.60;58.70
48734;DHT22;34530;52.084;5.146;2022-08-19T05:40:44;25.60;58.70
48734;DHT22;34530;52.084;5.146;2022-08-19T05:43:12;25.60;58.80
48734;DHT22;34530;52.084;5.146;2022-08-19T05:45:42;25.60;58.70
48734;DHT22;34530;52.084;5.146;2022-08-19T05:48:09;25.60;58.80
48734;DHT22;34530;52.084;5.146;2022-08-19T05:50:38;25.70;58.90
48734;DHT22;34530;52.084;5.146;2022-08-19T05:53:05;25.70;59.10
48734;DHT22;34530;52.084;5.146;2022-08-19T05:55:31;25.70;59.20
48734;DHT22;34530;52.084;5.146;2022-08-19T05:57:57;25.70;59.30
48734;DHT22;34530;52.084;5.146;2022-08-19T06:00:23;25.70;59.30
48734;DHT22;34530;52.084;5.146;2022-08-19T06:02:49;25.70;59.40
48734;DHT22;34530;52.084;5.146;2022-08-19T06:05:16;25.70;59.40
48734;DHT22;34530;52.084;5.146;2022-08-19T06:07:41;25.60;59.20
48734;DHT22;34530;52.084;5.146;2022-08-19T06:10:10;25.70;59.30
48734;DHT22;34530;52.084;5.146;2022-08-19T06:12:36;25.60;59.40
48734;DHT22;34530;52.084;5.146;2022-08-19T06:15:06;25.60;59.50
48734;DHT22;34530;52.084;5.146;2022-08-19T06:17:32;25.60;59.70
48734;DHT22;34530;52.084;5.146;2022-08-19T06:20:00;25.60;59.80
48734;DHT22;34530;52.084;5.146;2022-08-19T06:22:26;25.60;59.80
48734;DHT22;34530;52.084;5.146;2022-08-19T06:24:52;25.60;59.90
48734;DHT22;34530;52.084;5.146;2022-08-19T06:27:19;25.60;59.90
48734;DHT22;34530;52.084;5.146;2022-08-19T06:29:45;25.60;60.00
48734;DHT22;34530;52.084;5.146;2022-08-19T06:32:13;25.60;60.00
48734;DHT22;34530;52.084;5.146;2022-08-19T06:34:40;25.60;60.10
48734;DHT22;34530;52.084;5.146;2022-08-19T06:37:06;25.60;60.20
48734;DHT22;34530;52.084;5.146;2022-08-19T06:39:35;25.60;60.20
48734;DHT22;34530;52.084;5.146;2022-08-19T06:42:04;25.60;60.10
48734;DHT22;34530;52.084;5.146;2022-08-19T06:44:33;25.60;60.00
48734;DHT22;34530;52.084;5.146;2022-08-19T06:47:06;25.60;60.00
48734;DHT22;34530;52.084;5.146;2022-08-19T06:49:33;25.60;60.10
48734;DHT22;34530;52.084;5.146;2022-08-19T06:51:59;25.50;60.20
48734;DHT22;34530;52.084;5.146;2022-08-19T06:54:26;25.60;60.40
48734;DHT22;34530;52.084;5.146;2022-08-19T06:56:53;25.60;60.30
48734;DHT22;34530;52.084;5.146;2022-08-19T06:59:21;25.60;60.90
48734;DHT22;34530;52.084;5.146;2022-08-19T07:01:52;25.50;60.10
48734;DHT22;34530;52.084;5.146;2022-08-19T07:04:23;25.50;60.10
48734;DHT22;34530;52.084;5.146;2022-08-19T07:06:56;25.50;60.30
48734;DHT22;34530;52.084;5.146;2022-08-19T07:09:22;25.50;60.80
48734;DHT22;34530;52.084;5.146;2022-08-19T07:11:50;25.50;60.40
48734;DHT22;34530;52.084;5.146;2022-08-19T07:14:17;25.50;60.30
48734;DHT22;34530;52.084;5.146;2022-08-19T07:16:44;25.50;60.40
48734;DHT22;34530;52.084;5.146;2022-08-19T07:19:12;25.50;60.60
48734;DHT22;34530;52.084;5.146;2022-08-19T07:21:38;25.40;60.60
48734;DHT22;34530;52.084;5.146;2022-08-19T07:24:04;25.40;60.70
48734;DHT22;34530;52.084;5.146;2022-08-19T07:26:32;25.40;60.80
48734;DHT22;34530;52.084;5.146;2022-08-19T07:28:58;25.40;60.70
48734;DHT22;34530;52.084;5.146;2022-08-19T07:31:26;25.40;60.40
48734;DHT22;34530;52.084;5.146;2022-08-19T07:33:53;25.40;60.60
48734;DHT22;34530;52.084;5.146;2022-08-19T07:36:24;25.30;60.80
48734;DHT22;34530;52.084;5.146;2022-08-19T07:38:50;25.30;60.80
48734;DHT22;34530;52.084;5.146;2022-08-19T07:41:22;25.30;60.90
48734;DHT22;34530;52.084;5.146;2022-08-19T07:43:49;25.40;60.90
48734;DHT22;34530;52.084;5.146;2022-08-19T07:46:15;25.40;60.80
48734;DHT22;34530;52.084;5.146;2022-08-19T07:48:43;25.30;60.80
48734;DHT22;34530;52.084;5.146;2022-08-19T07:51:17;25.40;61.00
48734;DHT22;34530;52.084;5.146;2022-08-19T07:53:44;25.40;61.10
48734;DHT22;34530;52.084;5.146;2022-08-19T07:56:12;25.30;61.00
48734;DHT22;34530;52.084;5.146;2022-08-19T07:58:40;25.40;61.10
48734;DHT22;34530;52.084;5.146;2022-08-19T08:01:09;25.30;61.10
48734;DHT22;34530;52.084;5.146;2022-08-19T08:03:36;25.40;61.20
48734;DHT22;34530;52.084;5.146;2022-08-19T08:06:20;25.40;61.20
48734;DHT22;34530;52.084;5.146;2022-08-19T08:09:05;25.40;61.20
48734;DHT22;34530;52.084;5.146;2022-08-19T08:12:11;25.40;61.20
48734;DHT22;34530;52.084;5.146;2022-08-19T08:14:40;25.40;61.30
48734;DHT22;34530;52.084;5.146;2022-08-19T08:17:07;25.30;61.10
48734;DHT22;34530;52.084;5.146;2022-08-19T08:19:33;25.40;61.30
48734;DHT22;34530;52.084;5.146;2022-08-19T08:22:01;25.40;61.40
48734;DHT22;34530;52.084;5.146;2022-08-19T08:24:29;25.40;61.40
48734;DHT22;34530;52.084;5.146;2022-08-19T08:26:56;25.40;61.40
48734;DHT22;34530;52.084;5.146;2022-08-19T08:29:23;25.40;61.50
48734;DHT22;34530;52.084;5.146;2022-08-19T08:31:48;25.40;61.50
48734;DHT22;34530;52.084;5.146;2022-08-19T08:34:14;25.40;61.60
48734;DHT22;34530;52.084;5.146;2022-08-19T08:36:44;25.40;61.90
48734;DHT22;34530;52.084;5.146;2022-08-19T08:39:20;25.40;62.20
48734;DHT22;34530;52.084;5.146;2022-08-19T08:47:10;25.40;62.20
48734;DHT22;34530;52.084;5.146;2022-08-19T08:50:03;25.40;62.30
48734;DHT22;34530;52.084;5.146;2022-08-19T08:52:39;25.40;62.10
48734;DHT22;34530;52.084;5.146;2022-08-19T08:55:15;25.40;62.20
48734;DHT22;34530;52.084;5.146;2022-08-19T08:58:06;25.40;62.10
48734;DHT22;34530;52.084;5.146;2022-08-19T09:00:39;25.40;61.80
48734;DHT22;34530;52.084;5.146;2022-08-19T09:03:36;25.40;62.10
48734;DHT22;34530;52.084;5.146;2022-08-19T09:06:03;25.40;61.90
48734;DHT22;34530;52.084;5.146;2022-08-19T09:08:47;25.50;62.10
48734;DHT22;34530;52.084;5.146;2022-08-19T09:14:21;25.50;62.40
48734;DHT22;34530;52.084;5.146;2022-08-19T09:16:48;25.60;62.70
48734;DHT22;34530;52.084;5.146;2022-08-19T09:19:15;25.50;62.80
48734;DHT22;34530;52.084;5.146;2022-08-19T09:21:43;25.60;63.40
48734;DHT22;34530;52.084;5.146;2022-08-19T09:24:08;25.60;63.50
48734;DHT22;34530;52.084;5.146;2022-08-19T09:26:34;25.60;64.20
48734;DHT22;34530;52.084;5.146;2022-08-19T09:29:00;25.60;63.50
48734;DHT22;34530;52.084;5.146;2022-08-19T09:31:28;25.70;63.50
48734;DHT22;34530;52.084;5.146;2022-08-19T09:33:55;25.70;63.40
48734;DHT22;34530;52.084;5.146;2022-08-19T09:36:25;25.70;63.30
48734;DHT22;34530;52.084;5.146;2022-08-19T09:38:52;25.70;63.30
48734;DHT22;34530;52.084;5.146;2022-08-19T09:41:20;25.70;63.30
48734;DHT22;34530;52.084;5.146;2022-08-19T09:43:48;25.70;63.40
48734;DHT22;34530;52.084;5.146;2022-08-19T09:46:18;25.70;63.30
48734;DHT22;34530;52.084;5.146;2022-08-19T09:48:47;25.70;63.90
48734;DHT22;34530;52.084;5.146;2022-08-19T09:51:17;25.80;63.40
48734;DHT22;34530;52.084;5.146;2022-08-19T09:53:45;25.70;63.40
48734;DHT22;34530;52.084;5.146;2022-08-19T09:56:12;25.80;63.60
48734;DHT22;34530;52.084;5.146;2022-08-19T09:58:38;25.80;63.80
48734;DHT22;34530;52.084;5.146;2022-08-19T10:01:05;25.70;63.80
48734;DHT22;34530;52.084;5.146;2022-08-19T10:03:32;25.70;63.90
48734;DHT22;34530;52.084;5.146;2022-08-19T10:06:00;25.80;64.00
48734;DHT22;34530;52.084;5.146;2022-08-19T10:08:29;25.80;64.00
48734;DHT22;34530;52.084;5.146;2022-08-19T10:10:56;25.80;64.00
48734;DHT22;34530;52.084;5.146;2022-08-19T10:13:25;25.80;63.90
48734;DHT22;34530;52.084;5.146;2022-08-19T10:16:05;25.80;64.00
48734;DHT22;34530;52.084;5.146;2022-08-19T10:18:33;25.70;64.00
48734;DHT22;34530;52.084;5.146;2022-08-19T10:21:11;25.70;64.00
48734;DHT22;34530;52.084;5.146;2022-08-19T10:23:38;25.70;64.10
48734;DHT22;34530;52.084;5.146;2022-08-19T10:26:05;25.70;64.30
48734;DHT22;34530;52.084;5.146;2022-08-19T10:28:35;25.70;64.80
48734;DHT22;34530;52.084;5.146;2022-08-19T10:31:11;25.70;64.80
48734;DHT22;34530;52.084;5.146;2022-08-19T10:33:38;25.70;64.50
48734;DHT22;34530;52.084;5.146;2022-08-19T10:36:07;25.70;64.60
48734;DHT22;34530;52.084;5.146;2022-08-19T10:38:34;25.70;64.80
48734;DHT22;34530;52.084;5.146;2022-08-19T10:41:17;25.70;64.70
48734;DHT22;34530;52.084;5.146;2022-08-19T10:43:43;25.80;64.90
48734;DHT22;34530;52.084;5.146;2022-08-19T10:46:14;25.70;65.20
48734;DHT22;34530;52.084;5.146;2022-08-19T10:48:42;25.80;65.20
48734;DHT22;34530;52.084;5.146;2022-08-19T10:51:08;25.80;65.10
48734;DHT22;34530;52.084;5.146;2022-08-19T10:53:53;25.80;65.00
48734;DHT22;34530;52.084;5.146;2022-08-19T10:56:19;25.80;65.00
48734;DHT22;34530;52.084;5.146;2022-08-19T10:59:04;25.80;64.90
48734;DHT22;34530;52.084;5.146;2022-08-19T11:01:31;26.00;64.30
48734;DHT22;34530;52.084;5.146;2022-08-19T11:04:00;25.90;64.40
48734;DHT22;34530;52.084;5.146;2022-08-19T11:06:26;25.90;65.00
48734;DHT22;34530;52.084;5.146;2022-08-19T11:08:53;25.90;65.30
48734;DHT22;34530;52.084;5.146;2022-08-19T11:11:20;25.90;65.60
48734;DHT22;34530;52.084;5.146;2022-08-19T11:13:47;25.90;65.40
48734;DHT22;34530;52.084;5.146;2022-08-19T11:16:15;25.90;64.90
48734;DHT22;34530;52.084;5.146;2022-08-19T11:18:47;25.90;65.10
48734;DHT22;34530;52.084;5.146;2022-08-19T11:21:18;25.90;64.90
48734;DHT22;34530;52.084;5.146;2022-08-19T11:23:45;25.90;64.80
48734;DHT22;34530;52.084;5.146;2022-08-19T11:26:11;25.80;64.60
48734;DHT22;34530;52.084;5.146;2022-08-19T11:28:37;25.80;64.50
48734;DHT22;34530;52.084;5.146;2022-08-19T11:31:04;25.80;64.80
48734;DHT22;34530;52.084;5.146;2022-08-19T11:33:32;25.80;64.80
48734;DHT22;34530;52.084;5.146;2022-08-19T11:35:59;25.80;64.80
48734;DHT22;34530;52.084;5.146;2022-08-19T11:38:26;25.80;64.90
48734;DHT22;34530;52.084;5.146;2022-08-19T11:41:01;25.80;65.30
48734;DHT22;34530;52.084;5.146;2022-08-19T11:43:28;25.80;65.70
48734;DHT22;34530;52.084;5.146;2022-08-19T11:45:54;25.80;65.70
48734;DHT22;34530;52.084;5.146;2022-08-19T11:48:21;25.80;65.70
48734;DHT22;34530;52.084;5.146;2022-08-19T11:50:52;25.80;65.80
48734;DHT22;34530;52.084;5.146;2022-08-19T11:53:19;25.80;65.70
48734;DHT22;34530;52.084;5.146;2022-08-19T11:55:46;25.80;65.70
48734;DHT22;34530;52.084;5.146;2022-08-19T11:58:13;25.80;65.80
48734;DHT22;34530;52.084;5.146;2022-08-19T12:00:41;25.80;65.90
48734;DHT22;34530;52.084;5.146;2022-08-19T12:03:07;25.80;65.90
48734;DHT22;34530;52.084;5.146;2022-08-19T12:05:37;25.80;66.00
48734;DHT22;34530;52.084;5.146;2022-08-19T12:08:03;25.80;65.90
48734;DHT22;34530;52.084;5.146;2022-08-19T12:10:28;25.80;66.00
48734;DHT22;34530;52.084;5.146;2022-08-19T12:12:54;25.80;65.80
48734;DHT22;34530;52.084;5.146;2022-08-19T12:15:20;25.80;65.80
48734;DHT22;34530;52.084;5.146;2022-08-19T12:17:45;25.80;65.70
48734;DHT22;34530;52.084;5.146;2022-08-19T12:20:13;25.80;65.70
48734;DHT22;34530;52.084;5.146;2022-08-19T12:22:41;25.80;65.70
48734;DHT22;34530;52.084;5.146;2022-08-19T12:25:08;25.70;65.80
48734;DHT22;34530;52.084;5.146;2022-08-19T12:27:34;25.80;65.80
48734;DHT22;34530;52.084;5.146;2022-08-19T12:30:01;25.70;65.60
48734;DHT22;34530;52.084;5.146;2022-08-19T12:32:27;25.80;65.70
48734;DHT22;34530;52.084;5.146;2022-08-19T12:34:53;25.80;65.70
48734;DHT22;34530;52.084;5.146;2022-08-19T12:37:20;25.80;65.70
48734;DHT22;34530;52.084;5.146;2022-08-19T12:39:45;25.80;65.70
48734;DHT22;34530;52.084;5.146;2022-08-19T12:42:13;25.80;65.60
48734;DHT22;34530;52.084;5.146;2022-08-19T12:44:40;25.80;65.40
48734;DHT22;34530;52.084;5.146;2022-08-19T12:47:08;25.80;65.10
48734;DHT22;34530;52.084;5.146;2022-08-19T12:49:34;25.80;65.30
48734;DHT22;34530;52.084;5.146;2022-08-19T12:52:03;25.80;65.30
48734;DHT22;34530;52.084;5.146;2022-08-19T12:54:29;25.80;65.40
48734;DHT22;34530;52.084;5.146;2022-08-19T12:56:59;25.80;65.40
48734;DHT22;34530;52.084;5.146;2022-08-19T12:59:25;25.80;65.10
48734;DHT22;34530;52.084;5.146;2022-08-19T13:01:51;25.80;65.20
48734;DHT22;34530;52.084;5.146;2022-08-19T13:04:17;25.80;65.10
48734;DHT22;34530;52.084;5.146;2022-08-19T13:06:43;25.80;65.00
48734;DHT22;34530;52.084;5.146;2022-08-19T13:09:09;25.80;64.90
48734;DHT22;34530;52.084;5.146;2022-08-19T13:11:35;25.80;65.70
48734;DHT22;34530;52.084;5.146;2022-08-19T13:14:02;25.80;64.80
48734;DHT22;34530;52.084;5.146;2022-08-19T13:16:29;25.70;64.50
48734;DHT22;34530;52.084;5.146;2022-08-19T13:18:56;25.80;64.50
48734;DHT22;34530;52.084;5.146;2022-08-19T13:21:24;25.80;64.50
48734;DHT22;34530;52.084;5.146;2022-08-19T13:23:51;25.80;64.90
48734;DHT22;34530;52.084;5.146;2022-08-19T13:26:17;25.80;64.90
48734;DHT22;34530;52.084;5.146;2022-08-19T13:28:44;25.80;65.00
48734;DHT22;34530;52.084;5.146;2022-08-19T13:31:31;25.80;64.90
48734;DHT22;34530;52.084;5.146;2022-08-19T13:34:18;25.80;65.50
48734;DHT22;34530;52.084;5.146;2022-08-19T13:36:45;25.80;65.40
48734;DHT22;34530;52.084;5.146;2022-08-19T13:39:11;25.80;65.30
48734;DHT22;34530;52.084;5.146;2022-08-19T13:41:42;25.80;65.30
48734;DHT22;34530;52.084;5.146;2022-08-19T13:44:08;25.90;65.40
48734;DHT22;34530;52.084;5.146;2022-08-19T13:46:34;25.80;65.50
48734;DHT22;34530;52.084;5.146;2022-08-19T13:48:59;25.80;65.70
48734;DHT22;34530;52.084;5.146;2022-08-19T13:51:25;25.80;66.00
48734;DHT22;34530;52.084;5.146;2022-08-19T13:53:51;25.80;66.30
48734;DHT22;34530;52.084;5.146;2022-08-19T13:56:18;25.80;66.70
48734;DHT22;34530;52.084;5.146;2022-08-19T13:58:47;25.80;66.80
48734;DHT22;34530;52.084;5.146;2022-08-19T14:01:17;25.80;67.00
48734;DHT22;34530;52.084;5.146;2022-08-19T14:03:43;25.80;67.20
48734;DHT22;34530;52.084;5.146;2022-08-19T14:06:09;25.80;67.40
48734;DHT22;34530;52.084;5.146;2022-08-19T14:08:35;25.90;67.70
48734;DHT22;34530;52.084;5.146;2022-08-19T14:11:04;25.80;67.70
48734;DHT22;34530;52.084;5.146;2022-08-19T14:13:30;25.90;67.90
48734;DHT22;34530;52.084;5.146;2022-08-19T14:15:59;25.80;67.70
48734;DHT22;34530;52.084;5.146;2022-08-19T14:18:24;25.80;67.80
48734;DHT22;34530;52.084;5.146;2022-08-19T14:20:50;25.90;67.90
48734;DHT22;34530;52.084;5.146;2022-08-19T14:23:16;25.80;68.90
48734;DHT22;34530;52.084;5.146;2022-08-19T14:25:42;25.80;68.20
48734;DHT22;34530;52.084;5.146;2022-08-19T14:28:08;25.80;68.20
48734;DHT22;34530;52.084;5.146;2022-08-19T14:30:35;25.80;68.50
48734;DHT22;34530;52.084;5.146;2022-08-19T14:33:03;25.80;68.50
48734;DHT22;34530;52.084;5.146;2022-08-19T14:35:31;25.90;68.70
48734;DHT22;34530;52.084;5.146;2022-08-19T14:38:00;25.80;68.70
48734;DHT22;34530;52.084;5.146;2022-08-19T14:40:27;25.80;68.60
48734;DHT22;34530;52.084;5.146;2022-08-19T14:42:55;25.80;68.70
48734;DHT22;34530;52.084;5.146;2022-08-19T14:45:25;25.90;68.80
48734;DHT22;34530;52.084;5.146;2022-08-19T14:47:51;25.80;68.80
48734;DHT22;34530;52.084;5.146;2022-08-19T14:50:17;25.80;68.80
48734;DHT22;34530;52.084;5.146;2022-08-19T14:52:42;25.90;68.80
48734;DHT22;34530;52.084;5.146;2022-08-19T14:55:08;25.90;68.80
48734;DHT22;34530;52.084;5.146;2022-08-19T14:57:34;25.90;68.60
48734;DHT22;34530;52.084;5.146;2022-08-19T15:00:00;25.90;68.50
48734;DHT22;34530;52.084;5.146;2022-08-19T15:02:25;25.90;68.50
48734;DHT22;34530;52.084;5.146;2022-08-19T15:04:51;25.90;68.30
48734;DHT22;34530;52.084;5.146;2022-08-19T15:07:17;25.90;68.30
48734;DHT22;34530;52.084;5.146;2022-08-19T15:09:43;25.90;68.30
48734;DHT22;34530;52.084;5.146;2022-08-19T15:12:08;26.00;68.10
48734;DHT22;34530;52.084;5.146;2022-08-19T15:14:36;26.00;68.00
48734;DHT22;34530;52.084;5.146;2022-08-19T15:17:03;26.00;67.80
48734;DHT22;34530;52.084;5.146;2022-08-19T15:19:30;26.00;67.90
48734;DHT22;34530;52.084;5.146;2022-08-19T15:21:56;26.00;67.90
48734;DHT22;34530;52.084;5.146;2022-08-19T15:24:22;26.00;68.00
48734;DHT22;34530;52.084;5.146;2022-08-19T15:26:51;26.00;68.00
48734;DHT22;34530;52.084;5.146;2022-08-19T15:29:16;26.00;68.10
48734;DHT22;34530;52.084;5.146;2022-08-19T15:31:42;26.00;68.20
48734;DHT22;34530;52.084;5.146;2022-08-19T15:34:08;26.00;67.90
48734;DHT22;34530;52.084;5.146;2022-08-19T15:36:34;26.00;67.80
48734;DHT22;34530;52.084;5.146;2022-08-19T15:39:01;26.00;67.70
48734;DHT22;34530;52.084;5.146;2022-08-19T15:41:29;26.00;67.80
48734;DHT22;34530;52.084;5.146;2022-08-19T15:43:57;26.00;67.90
48734;DHT22;34530;52.084;5.146;2022-08-19T15:46:26;26.00;68.20
48734;DHT22;34530;52.084;5.146;2022-08-19T15:48:53;26.00;68.30